sensor_id;sensor_type;location;lat;lon;timestamp;pressure;altitude;pressure_sealevel;temperature;humidity
73862;BME280;63459;51.456;-0.916;2022-12-29T00:00:25;98902.87;;;23.14;24.00
73862;BME280;63459;51.456;-0.916;2022-12-29T00:46:21;98860.69;;;23.16;23.49
73862;BME280;63459;51.456;-0.916;2022-12-29T00:51:22;98857.61;;;23.30;23.44
73862;BME280;63459;51.456;-0.916;2022-12-29T00:53:41;98866.23;;;23.04;23.45
73862;BME280;63459;51.456;-0.916;2022-12-29T00:58:34;98865.07;;;22.95;23.45
73862;BME280;63459;51.456;-0.916;2022-12-29T01:27:39;98831.98;;;23.03;22.95
73862;BME280;63459;51.456;-0.916;2022-12-29T01:37:06;98847.42;;;22.63;22.83
73862;BME280;63459;51.456;-0.916;2022-12-29T01:56:31;98855.70;;;22.42;22.83
73862;BME280;63459;51.456;-0.916;2022-12-29T02:04:08;98860.10;;;22.46;22.68
73862;BME280;63459;51.456;-0.916;2022-12-29T02:08:41;98856.42;;;22.21;22.58
73862;BME280;63459;51.456;-0.916;2022-12-29T02:11:09;98852.81;;;22.20;22.59
73862;BME280;63459;51.456;-0.916;2022-12-29T02:18:47;98853.08;;;22.84;22.56
73862;BME280;63459;51.456;-0.916;2022-12-29T02:35:51;98850.38;;;22.04;22.41
73862;BME280;63459;51.456;-0.916;2022-12-29T02:37:54;98849.41;;;23.09;22.45
73862;BME280;63459;51.456;-0.916;2022-12-29T02:40:16;98840.96;;;22.94;22.50
73862;BME280;63459;51.456;-0.916;2022-12-29T02:42:36;98847.54;;;22.59;22.49
73862;BME280;63459;51.456;-0.916;2022-12-29T02:45:02;98853.29;;;22.65;22.52
73862;BME280;63459;51.456;-0.916;2022-12-29T02:47:26;98856.48;;;22.73;22.55
73862;BME280;63459;51.456;-0.916;2022-12-29T02:54:52;98850.85;;;22.69;22.47
73862;BME280;63459;51.456;-0.916;2022-12-29T02:57:14;98848.12;;;22.76;22.43
73862;BME280;63459;51.456;-0.916;2022-12-29T02:59:37;98852.13;;;22.84;22.36
73862;BME280;63459;51.456;-0.916;2022-12-29T03:11:48;98860.38;;;23.29;22.24
73862;BME280;63459;51.456;-0.916;2022-12-29T03:16:42;98860.90;;;23.16;22.11
73862;BME280;63459;51.456;-0.916;2022-12-29T03:19:07;98856.12;;;23.21;22.13
73862;BME280;63459;51.456;-0.916;2022-12-29T03:21:35;98856.02;;;23.46;22.16
73862;BME280;63459;51.456;-0.916;2022-12-29T03:23:55;98857.45;;;23.28;22.19
73862;BME280;63459;51.456;-0.916;2022-12-29T03:35:44;98856.92;;;22.81;22.06
73862;BME280;63459;51.456;-0.916;2022-12-29T03:38:13;98866.54;;;23.51;22.06
73862;BME280;63459;51.456;-0.916;2022-12-29T03:40:34;98871.32;;;23.30;22.10
73862;BME280;63459;51.456;-0.916;2022-12-29T03:42:59;98862.64;;;23.32;22.05
73862;BME280;63459;51.456;-0.916;2022-12-29T03:45:25;98855.76;;;23.78;22.09
73862;BME280;63459;51.456;-0.916;2022-12-29T03:47:51;98864.32;;;23.54;22.12
73862;BME280;63459;51.456;-0.916;2022-12-29T03:50:16;98859.69;;;23.38;22.13
73862;BME280;63459;51.456;-0.916;2022-12-29T03:52:41;98867.84;;;23.33;22.19
73862;BME280;63459;51.456;-0.916;2022-12-29T03:57:32;98866.42;;;23.77;22.23
73862;BME280;63459;51.456;-0.916;2022-12-29T03:59:57;98873.69;;;23.54;22.31
73862;BME280;63459;51.456;-0.916;2022-12-29T04:02:22;98870.12;;;23.52;22.37
73862;BME280;63459;51.456;-0.916;2022-12-29T04:04:48;98863.24;;;23.32;22.34
73862;BME280;63459;51.456;-0.916;2022-12-29T04:07:13;98867.85;;;23.15;22.32
73862;BME280;63459;51.456;-0.916;2022-12-29T04:09:38;98864.08;;;22.93;22.31
73862;BME280;63459;51.456;-0.916;2022-12-29T04:12:04;98869.87;;;23.67;22.27
73862;BME280;63459;51.456;-0.916;2022-12-29T04:14:29;98877.35;;;23.64;22.29
73862;BME280;63459;51.456;-0.916;2022-12-29T04:16:54;98882.57;;;23.64;22.30
73862;BME280;63459;51.456;-0.916;2022-12-29T04:19:19;98886.63;;;23.65;22.33
73862;BME280;63459;51.456;-0.916;2022-12-29T04:21:45;98890.32;;;23.71;22.35
73862;BME280;63459;51.456;-0.916;2022-12-29T04:24:11;98892.53;;;23.31;22.37
73862;BME280;63459;51.456;-0.916;2022-12-29T04:29:02;98915.15;;;23.83;22.39
73862;BME280;63459;51.456;-0.916;2022-12-29T04:31:27;98909.41;;;23.42;22.40
73862;BME280;63459;51.456;-0.916;2022-12-29T04:33:52;98915.41;;;24.07;22.45
73862;BME280;63459;51.456;-0.916;2022-12-29T04:36:17;98928.53;;;24.28;22.43
73862;BME280;63459;51.456;-0.916;2022-12-29T04:43:34;98947.90;;;23.70;22.45
73862;BME280;63459;51.456;-0.916;2022-12-29T04:45:59;98959.27;;;23.92;22.45
73862;BME280;63459;51.456;-0.916;2022-12-29T04:48:24;98972.50;;;23.88;22.46
73862;BME280;63459;51.456;-0.916;2022-12-29T04:50:50;98969.65;;;23.37;22.51
73862;BME280;63459;51.456;-0.916;2022-12-29T04:53:16;98985.92;;;23.77;22.50
73862;BME280;63459;51.456;-0.916;2022-12-29T04:55:41;99003.06;;;23.56;22.51
73862;BME280;63459;51.456;-0.916;2022-12-29T04:58:06;99011.31;;;23.50;22.51
73862;BME280;63459;51.456;-0.916;2022-12-29T05:00:32;99017.04;;;23.48;22.52
73862;BME280;63459;51.456;-0.916;2022-12-29T05:02:57;99030.77;;;23.95;22.46
73862;BME280;63459;51.456;-0.916;2022-12-29T05:05:22;99039.72;;;23.73;22.42
73862;BME280;63459;51.456;-0.916;2022-12-29T05:07:48;99061.89;;;23.49;22.43
73862;BME280;63459;51.456;-0.916;2022-12-29T05:10:13;99063.36;;;23.46;22.43
73862;BME280;63459;51.456;-0.916;2022-12-29T05:12:38;99068.72;;;23.29;22.38
73862;BME280;63459;51.456;-0.916;2022-12-29T05:15:05;99063.80;;;23.61;22.42
73862;BME280;63459;51.456;-0.916;2022-12-29T05:17:29;99074.83;;;23.58;22.34
73862;BME280;63459;51.456;-0.916;2022-12-29T05:19:54;99080.04;;;23.22;22.31
73862;BME280;63459;51.456;-0.916;2022-12-29T05:22:19;99090.34;;;22.95;22.22
73862;BME280;63459;51.456;-0.916;2022-12-29T05:24:44;99093.38;;;23.47;22.21
73862;BME280;63459;51.456;-0.916;2022-12-29T05:27:10;99094.13;;;23.15;22.28
73862;BME280;63459;51.456;-0.916;2022-12-29T05:29:35;99102.84;;;23.05;22.28
73862;BME280;63459;51.456;-0.916;2022-12-29T05:32:00;99109.28;;;22.92;22.36
73862;BME280;63459;51.456;-0.916;2022-12-29T05:34:25;99113.99;;;22.92;22.31
73862;BME280;63459;51.456;-0.916;2022-12-29T05:36:51;99122.59;;;23.26;22.37
73862;BME280;63459;51.456;-0.916;2022-12-29T05:39:16;99137.54;;;22.96;22.41
73862;BME280;63459;51.456;-0.916;2022-12-29T05:41:41;99141.47;;;23.06;22.50
73862;BME280;63459;51.456;-0.916;2022-12-29T05:44:06;99146.63;;;22.79;22.52
73862;BME280;63459;51.456;-0.916;2022-12-29T05:46:32;99155.26;;;22.74;22.56
73862;BME280;63459;51.456;-0.916;2022-12-29T05:48:57;99161.16;;;23.15;22.55
73862;BME280;63459;51.456;-0.916;2022-12-29T05:51:23;99170.52;;;22.62;22.66
73862;BME280;63459;51.456;-0.916;2022-12-29T05:53:48;99171.11;;;22.16;22.65
73862;BME280;63459;51.456;-0.916;2022-12-29T05:56:13;99169.29;;;22.32;22.69
73862;BME280;63459;51.456;-0.916;2022-12-29T05:58:39;99187.89;;;22.29;22.70
73862;BME280;63459;51.456;-0.916;2022-12-29T06:01:04;99194.61;;;22.44;22.72
73862;BME280;63459;51.456;-0.916;2022-12-29T06:03:29;99200.64;;;22.64;22.63
73862;BME280;63459;51.456;-0.916;2022-12-29T06:05:55;99212.61;;;22.61;22.67
73862;BME280;63459;51.456;-0.916;2022-12-29T06:08:20;99220.67;;;22.33;22.67
73862;BME280;63459;51.456;-0.916;2022-12-29T06:10:46;99227.59;;;22.51;22.67
73862;BME280;63459;51.456;-0.916;2022-12-29T06:13:11;99238.20;;;22.25;22.73
73862;BME280;63459;51.456;-0.916;2022-12-29T06:15:37;99242.68;;;22.26;22.72
73862;BME280;63459;51.456;-0.916;2022-12-29T06:18:02;99240.91;;;22.26;22.73
73862;BME280;63459;51.456;-0.916;2022-12-29T06:20:27;99247.37;;;22.05;22.76
73862;BME280;63459;51.456;-0.916;2022-12-29T06:22:52;99249.30;;;22.73;22.76
73862;BME280;63459;51.456;-0.916;2022-12-29T06:25:18;99252.40;;;21.31;22.70
73862;BME280;63459;51.456;-0.916;2022-12-29T06:27:43;99259.83;;;22.60;22.48
73862;BME280;63459;51.456;-0.916;2022-12-29T06:30:10;99261.43;;;22.43;22.61
73862;BME280;63459;51.456;-0.916;2022-12-29T06:32:34;99263.50;;;22.36;22.63
73862;BME280;63459;51.456;-0.916;2022-12-29T06:34:59;99270.40;;;22.51;22.72
73862;BME280;63459;51.456;-0.916;2022-12-29T06:37:24;99282.82;;;22.25;22.73
73862;BME280;63459;51.456;-0.916;2022-12-29T06:39:50;99282.30;;;22.25;22.74
73862;BME280;63459;51.456;-0.916;2022-12-29T06:42:15;99293.91;;;22.55;22.68
73862;BME280;63459;51.456;-0.916;2022-12-29T06:47:05;99300.73;;;22.30;22.60
73862;BME280;63459;51.456;-0.916;2022-12-29T06:49:31;99312.45;;;22.30;22.66
73862;BME280;63459;51.456;-0.916;2022-12-29T06:51:56;99311.40;;;22.31;22.62
73862;BME280;63459;51.456;-0.916;2022-12-29T06:56:46;99316.14;;;22.83;22.62
73862;BME280;63459;51.456;-0.916;2022-12-29T06:59:12;99312.79;;;22.61;22.64
73862;BME280;63459;51.456;-0.916;2022-12-29T07:01:37;99312.09;;;22.81;22.63
73862;BME280;63459;51.456;-0.916;2022-12-29T07:04:02;99321.28;;;22.06;22.67
73862;BME280;63459;51.456;-0.916;2022-12-29T07:06:27;99325.01;;;22.51;22.63
73862;BME280;63459;51.456;-0.916;2022-12-29T07:08:53;99335.61;;;22.69;22.62
73862;BME280;63459;51.456;-0.916;2022-12-29T07:11:18;99341.42;;;22.19;22.56
73862;BME280;63459;51.456;-0.916;2022-12-29T07:13:43;99344.54;;;22.16;22.55
73862;BME280;63459;51.456;-0.916;2022-12-29T07:16:10;99344.06;;;22.77;22.59
73862;BME280;63459;51.456;-0.916;2022-12-29T07:23:26;99354.84;;;22.71;22.55
73862;BME280;63459;51.456;-0.916;2022-12-29T07:25:59;99357.66;;;22.92;22.56
73862;BME280;63459;51.456;-0.916;2022-12-29T07:28:16;99357.92;;;22.26;22.60
73862;BME280;63459;51.456;-0.916;2022-12-29T07:33:07;99359.10;;;22.73;22.63
73862;BME280;63459;51.456;-0.916;2022-12-29T07:35:33;99370.24;;;22.06;22.72
73862;BME280;63459;51.456;-0.916;2022-12-29T07:37:58;99366.88;;;22.57;22.69
73862;BME280;63459;51.456;-0.916;2022-12-29T07:40:23;99361.01;;;22.17;22.70
73862;BME280;63459;51.456;-0.916;2022-12-29T07:42:48;99369.04;;;22.18;22.70
73862;BME280;63459;51.456;-0.916;2022-12-29T07:45:14;99372.35;;;22.17;22.70
73862;BME280;63459;51.456;-0.916;2022-12-29T07:47:40;99379.75;;;22.63;22.67
73862;BME280;63459;51.456;-0.916;2022-12-29T07:52:30;99383.85;;;22.60;22.69
73862;BME280;63459;51.456;-0.916;2022-12-29T07:54:55;99380.89;;;22.30;22.73
73862;BME280;63459;51.456;-0.916;2022-12-29T07:57:21;99388.89;;;22.67;22.78
73862;BME280;63459;51.456;-0.916;2022-12-29T07:59:46;99392.13;;;22.23;22.77
73862;BME280;63459;51.456;-0.916;2022-12-29T08:02:11;99398.23;;;22.67;22.80
73862;BME280;63459;51.456;-0.916;2022-12-29T08:07:02;99405.12;;;22.50;22.82
73862;BME280;63459;51.456;-0.916;2022-12-29T08:09:27;99403.37;;;22.11;22.81
73862;BME280;63459;51.456;-0.916;2022-12-29T08:11:54;99409.01;;;22.30;22.85
73862;BME280;63459;51.456;-0.916;2022-12-29T08:19:10;99411.28;;;22.13;22.83
73862;BME280;63459;51.456;-0.916;2022-12-29T08:21:34;99419.75;;;22.14;22.82
73862;BME280;63459;51.456;-0.916;2022-12-29T08:26:25;99425.20;;;22.19;22.86
73862;BME280;63459;51.456;-0.916;2022-12-29T08:28:52;99419.53;;;22.20;22.86
73862;BME280;63459;51.456;-0.916;2022-12-29T08:31:15;99422.05;;;22.38;22.89
73862;BME280;63459;51.456;-0.916;2022-12-29T08:33:40;99429.82;;;22.80;22.93
73862;BME280;63459;51.456;-0.916;2022-12-29T08:36:07;99430.57;;;22.60;22.93
73862;BME280;63459;51.456;-0.916;2022-12-29T08:38:31;99435.07;;;22.43;22.93
73862;BME280;63459;51.456;-0.916;2022-12-29T08:40:57;99444.15;;;22.91;22.94
73862;BME280;63459;51.456;-0.916;2022-12-29T08:45:47;99447.27;;;22.59;22.90
73862;BME280;63459;51.456;-0.916;2022-12-29T08:48:12;99451.33;;;22.33;22.92
73862;BME280;63459;51.456;-0.916;2022-12-29T08:50:37;99459.28;;;22.56;22.92
73862;BME280;63459;51.456;-0.916;2022-12-29T08:53:03;99464.29;;;22.80;22.93
73862;BME280;63459;51.456;-0.916;2022-12-29T08:55:28;99471.00;;;22.88;22.90
73862;BME280;63459;51.456;-0.916;2022-12-29T09:00:19;99476.31;;;23.05;22.83
73862;BME280;63459;51.456;-0.916;2022-12-29T09:02:44;99476.83;;;22.71;22.80
73862;BME280;63459;51.456;-0.916;2022-12-29T09:05:10;99481.25;;;22.94;22.76
73862;BME280;63459;51.456;-0.916;2022-12-29T09:07:35;99481.05;;;22.98;22.74
73862;BME280;63459;51.456;-0.916;2022-12-29T09:10:01;99488.50;;;22.83;22.58
73862;BME280;63459;51.456;-0.916;2022-12-29T09:12:26;99490.55;;;22.44;22.59
73862;BME280;63459;51.456;-0.916;2022-12-29T09:14:52;99497.58;;;23.10;22.57
73862;BME280;63459;51.456;-0.916;2022-12-29T09:17:17;99503.68;;;22.47;22.46
73862;BME280;63459;51.456;-0.916;2022-12-29T09:19:42;99511.13;;;23.17;22.28
73862;BME280;63459;51.456;-0.916;2022-12-29T09:22:07;99519.44;;;22.76;22.32
73862;BME280;63459;51.456;-0.916;2022-12-29T09:24:33;99526.25;;;23.03;22.13
73862;BME280;63459;51.456;-0.916;2022-12-29T09:26:58;99527.33;;;22.67;22.15
73862;BME280;63459;51.456;-0.916;2022-12-29T09:29:24;99532.31;;;23.14;22.10
73862;BME280;63459;51.456;-0.916;2022-12-29T09:31:48;99540.80;;;23.24;22.07
73862;BME280;63459;51.456;-0.916;2022-12-29T09:36:39;99555.82;;;23.16;21.87
73862;BME280;63459;51.456;-0.916;2022-12-29T09:39:04;99558.91;;;23.33;21.93
73862;BME280;63459;51.456;-0.916;2022-12-29T09:41:33;99561.03;;;23.31;21.81
73862;BME280;63459;51.456;-0.916;2022-12-29T09:44:03;99568.45;;;23.08;21.82
73862;BME280;63459;51.456;-0.916;2022-12-29T09:46:24;99571.42;;;23.32;21.81
73862;BME280;63459;51.456;-0.916;2022-12-29T09:48:50;99579.93;;;23.04;21.88
73862;BME280;63459;51.456;-0.916;2022-12-29T09:51:15;99586.86;;;23.16;22.02
73862;BME280;63459;51.456;-0.916;2022-12-29T09:53:38;99586.67;;;23.33;22.08
73862;BME280;63459;51.456;-0.916;2022-12-29T09:56:02;99573.19;;;22.85;22.14
73862;BME280;63459;51.456;-0.916;2022-12-29T09:58:32;99578.66;;;22.96;22.22
73862;BME280;63459;51.456;-0.916;2022-12-29T10:00:58;99581.89;;;23.32;22.28
73862;BME280;63459;51.456;-0.916;2022-12-29T10:03:19;99598.49;;;23.11;22.23
73862;BME280;63459;51.456;-0.916;2022-12-29T10:05:47;99596.77;;;23.09;22.18
73862;BME280;63459;51.456;-0.916;2022-12-29T10:08:19;99598.44;;;23.00;22.23
73862;BME280;63459;51.456;-0.916;2022-12-29T10:10:38;99603.40;;;22.72;22.21
73862;BME280;63459;51.456;-0.916;2022-12-29T10:13:13;99611.22;;;22.90;22.23
73862;BME280;63459;51.456;-0.916;2022-12-29T10:15:37;99618.56;;;22.88;22.17
73862;BME280;63459;51.456;-0.916;2022-12-29T10:17:55;99623.99;;;22.39;22.16
73862;BME280;63459;51.456;-0.916;2022-12-29T10:20:23;99629.74;;;23.03;22.16
73862;BME280;63459;51.456;-0.916;2022-12-29T10:22:51;99620.92;;;22.62;22.17
73862;BME280;63459;51.456;-0.916;2022-12-29T10:25:12;99626.56;;;22.93;22.15
73862;BME280;63459;51.456;-0.916;2022-12-29T10:27:30;99627.74;;;22.57;22.13
73862;BME280;63459;51.456;-0.916;2022-12-29T10:29:56;99629.81;;;23.03;22.14
73862;BME280;63459;51.456;-0.916;2022-12-29T10:32:26;99626.04;;;23.14;22.01
73862;BME280;63459;51.456;-0.916;2022-12-29T10:34:50;99634.02;;;22.75;21.97
73862;BME280;63459;51.456;-0.916;2022-12-29T10:37:14;99632.59;;;22.82;21.91
73862;BME280;63459;51.456;-0.916;2022-12-29T10:39:40;99635.81;;;23.31;21.80
73862;BME280;63459;51.456;-0.916;2022-12-29T10:42:08;99641.03;;;23.16;21.72
73862;BME280;63459;51.456;-0.916;2022-12-29T10:44:30;99644.96;;;23.66;21.69
73862;BME280;63459;51.456;-0.916;2022-12-29T10:46:57;99646.02;;;23.54;21.56
73862;BME280;63459;51.456;-0.916;2022-12-29T10:49:18;99660.47;;;23.15;21.47
73862;BME280;63459;51.456;-0.916;2022-12-29T10:51:44;99656.08;;;23.63;21.35
73862;BME280;63459;51.456;-0.916;2022-12-29T10:54:14;99659.22;;;23.17;21.33
73862;BME280;63459;51.456;-0.916;2022-12-29T10:56:35;99654.37;;;23.33;21.33
73862;BME280;63459;51.456;-0.916;2022-12-29T10:59:03;99661.94;;;23.12;21.23
73862;BME280;63459;51.456;-0.916;2022-12-29T11:01:31;99665.88;;;23.35;21.13
73862;BME280;63459;51.456;-0.916;2022-12-29T11:03:58;99662.14;;;23.15;21.01
73862;BME280;63459;51.456;-0.916;2022-12-29T11:06:18;99664.93;;;23.38;20.84
73862;BME280;63459;51.456;-0.916;2022-12-29T11:08:52;99666.91;;;23.12;20.78
73862;BME280;63459;51.456;-0.916;2022-12-29T11:11:07;99667.89;;;23.28;20.81
73862;BME280;63459;51.456;-0.916;2022-12-29T11:13:32;99670.15;;;23.47;20.83
73862;BME280;63459;51.456;-0.916;2022-12-29T11:15:55;99670.56;;;23.02;20.93
73862;BME280;63459;51.456;-0.916;2022-12-29T11:18:23;99668.33;;;23.19;20.94
73862;BME280;63459;51.456;-0.916;2022-12-29T11:20:47;99673.05;;;22.96;20.79
73862;BME280;63459;51.456;-0.916;2022-12-29T11:23:21;99673.91;;;23.16;20.77
73862;BME280;63459;51.456;-0.916;2022-12-29T11:25:37;99667.45;;;23.10;20.76
73862;BME280;63459;51.456;-0.916;2022-12-29T11:28:13;99681.28;;;23.08;20.79
73862;BME280;63459;51.456;-0.916;2022-12-29T11:30:29;99677.49;;;22.71;20.78
73862;BME280;63459;51.456;-0.916;2022-12-29T11:32:54;99683.11;;;23.09;20.77
73862;BME280;63459;51.456;-0.916;2022-12-29T11:35:32;99685.07;;;23.23;20.75
73862;BME280;63459;51.456;-0.916;2022-12-29T11:37:43;99691.94;;;23.25;20.73
73862;BME280;63459;51.456;-0.916;2022-12-29T11:40:15;99688.48;;;23.07;20.63
73862;BME280;63459;51.456;-0.916;2022-12-29T11:42:36;99693.27;;;23.39;20.54
73862;BME280;63459;51.456;-0.916;2022-12-29T11:45:03;99701.61;;;23.30;20.48
73862;BME280;63459;51.456;-0.916;2022-12-29T11:47:27;99705.68;;;23.17;20.24
73862;BME280;63459;51.456;-0.916;2022-12-29T11:49:51;99704.02;;;23.13;20.32
73862;BME280;63459;51.456;-0.916;2022-12-29T11:52:15;99712.47;;;23.33;20.15
73862;BME280;63459;51.456;-0.916;2022-12-29T11:54:42;99706.38;;;23.03;20.12
73862;BME280;63459;51.456;-0.916;2022-12-29T11:57:11;99709.51;;;23.37;20.09
73862;BME280;63459;51.456;-0.916;2022-12-29T11:59:39;99705.14;;;23.03;20.11
73862;BME280;63459;51.456;-0.916;2022-12-29T12:01:58;99704.58;;;22.94;20.16
73862;BME280;63459;51.456;-0.916;2022-12-29T12:04:24;99705.66;;;22.65;20.17
73862;BME280;63459;51.456;-0.916;2022-12-29T12:06:52;99699.66;;;22.82;20.24
73862;BME280;63459;51.456;-0.916;2022-12-29T12:09:16;99705.28;;;22.58;20.27
73862;BME280;63459;51.456;-0.916;2022-12-29T12:11:39;99709.43;;;22.81;20.32
73862;BME280;63459;51.456;-0.916;2022-12-29T12:14:07;99712.24;;;23.15;20.22
73862;BME280;63459;51.456;-0.916;2022-12-29T12:16:33;99709.55;;;22.97;20.17
73862;BME280;63459;51.456;-0.916;2022-12-29T12:18:56;99715.87;;;23.03;20.08
73862;BME280;63459;51.456;-0.916;2022-12-29T12:21:23;99711.01;;;23.19;20.00
73862;BME280;63459;51.456;-0.916;2022-12-29T12:23:56;99709.16;;;23.29;19.95
73862;BME280;63459;51.456;-0.916;2022-12-29T12:26:12;99717.32;;;23.22;19.95
73862;BME280;63459;51.456;-0.916;2022-12-29T12:28:42;99715.49;;;23.53;19.96
73862;BME280;63459;51.456;-0.916;2022-12-29T12:31:01;99718.07;;;23.41;19.86
73862;BME280;63459;51.456;-0.916;2022-12-29T12:33:29;99719.32;;;23.44;19.82
73862;BME280;63459;51.456;-0.916;2022-12-29T12:36:02;99724.77;;;23.75;19.75
73862;BME280;63459;51.456;-0.916;2022-12-29T12:38:26;99723.02;;;23.13;19.68
73862;BME280;63459;51.456;-0.916;2022-12-29T12:40:53;99731.30;;;23.80;19.71
73862;BME280;63459;51.456;-0.916;2022-12-29T12:43:18;99726.02;;;23.55;19.61
73862;BME280;63459;51.456;-0.916;2022-12-29T12:45:42;99723.65;;;23.02;19.46
73862;BME280;63459;51.456;-0.916;2022-12-29T12:48:05;99717.10;;;23.34;19.43
73862;BME280;63459;51.456;-0.916;2022-12-29T12:50:32;99734.18;;;23.54;19.32
73862;BME280;63459;51.456;-0.916;2022-12-29T12:57:48;99728.41;;;23.77;19.42
73862;BME280;63459;51.456;-0.916;2022-12-29T13:00:07;99732.79;;;23.65;19.43
73862;BME280;63459;51.456;-0.916;2022-12-29T13:02:37;99726.13;;;23.50;19.32
73862;BME280;63459;51.456;-0.916;2022-12-29T13:05:06;99721.12;;;23.62;19.29
73862;BME280;63459;51.456;-0.916;2022-12-29T13:07:27;99731.36;;;23.35;19.24
73862;BME280;63459;51.456;-0.916;2022-12-29T13:09:56;99724.96;;;23.32;19.24
73862;BME280;63459;51.456;-0.916;2022-12-29T13:12:16;99717.71;;;23.52;19.29
73862;BME280;63459;51.456;-0.916;2022-12-29T13:14:43;99724.34;;;23.29;19.28
73862;BME280;63459;51.456;-0.916;2022-12-29T13:17:05;99721.46;;;23.75;19.21
73862;BME280;63459;51.456;-0.916;2022-12-29T13:21:59;99715.75;;;23.36;18.93
73862;BME280;63459;51.456;-0.916;2022-12-29T13:24:19;99718.39;;;23.31;19.03
73862;BME280;63459;51.456;-0.916;2022-12-29T13:26:44;99720.93;;;23.30;19.05
73862;BME280;63459;51.456;-0.916;2022-12-29T13:29:14;99718.74;;;23.24;18.99
73862;BME280;63459;51.456;-0.916;2022-12-29T13:31:37;99721.53;;;22.94;19.00
73862;BME280;63459;51.456;-0.916;2022-12-29T13:34:05;99720.05;;;23.32;18.99
73862;BME280;63459;51.456;-0.916;2022-12-29T13:36:26;99730.32;;;22.87;18.92
73862;BME280;63459;51.456;-0.916;2022-12-29T13:38:50;99733.51;;;23.49;19.00
73862;BME280;63459;51.456;-0.916;2022-12-29T13:41:25;99733.81;;;23.14;19.03
73862;BME280;63459;51.456;-0.916;2022-12-29T13:43:39;99727.50;;;23.62;18.96
73862;BME280;63459;51.456;-0.916;2022-12-29T13:46:08;99729.73;;;23.16;18.99
73862;BME280;63459;51.456;-0.916;2022-12-29T13:48:36;99735.57;;;23.20;18.90
73862;BME280;63459;51.456;-0.916;2022-12-29T13:53:25;99744.05;;;23.70;18.89
73862;BME280;63459;51.456;-0.916;2022-12-29T13:55:49;99746.45;;;23.48;18.78
73862;BME280;63459;51.456;-0.916;2022-12-29T13:58:18;99744.59;;;23.08;18.75
73862;BME280;63459;51.456;-0.916;2022-12-29T14:00:48;99742.51;;;23.30;18.79
73862;BME280;63459;51.456;-0.916;2022-12-29T14:05:28;99752.17;;;23.26;18.75
73862;BME280;63459;51.456;-0.916;2022-12-29T14:07:57;99748.00;;;22.98;18.56
73862;BME280;63459;51.456;-0.916;2022-12-29T14:10:26;99752.11;;;22.87;18.47
73862;BME280;63459;51.456;-0.916;2022-12-29T14:12:43;99756.29;;;22.99;18.60
73862;BME280;63459;51.456;-0.916;2022-12-29T14:15:15;99760.72;;;22.94;18.54
73862;BME280;63459;51.456;-0.916;2022-12-29T14:17:33;99759.69;;;23.26;18.65
73862;BME280;63459;51.456;-0.916;2022-12-29T14:19:58;99758.97;;;23.03;18.67
73862;BME280;63459;51.456;-0.916;2022-12-29T14:22:25;99770.60;;;22.96;18.59
73862;BME280;63459;51.456;-0.916;2022-12-29T14:24:48;99765.50;;;23.10;18.71
73862;BME280;63459;51.456;-0.916;2022-12-29T14:29:43;99773.91;;;22.96;18.79
73862;BME280;63459;51.456;-0.916;2022-12-29T14:34:38;99774.79;;;23.17;18.86
73862;BME280;63459;51.456;-0.916;2022-12-29T14:39:32;99785.46;;;23.01;18.75
73862;BME280;63459;51.456;-0.916;2022-12-29T14:41:46;99781.44;;;23.07;18.80
73862;BME280;63459;51.456;-0.916;2022-12-29T14:46:46;99787.24;;;23.34;18.73
73862;BME280;63459;51.456;-0.916;2022-12-29T14:49:02;99785.34;;;22.93;18.59
73862;BME280;63459;51.456;-0.916;2022-12-29T14:53:53;99786.34;;;23.40;18.52
73862;BME280;63459;51.456;-0.916;2022-12-29T14:56:23;99793.08;;;23.38;18.59
73862;BME280;63459;51.456;-0.916;2022-12-29T14:58:48;99797.69;;;23.40;18.60
73862;BME280;63459;51.456;-0.916;2022-12-29T15:01:18;99797.89;;;22.97;18.64
73862;BME280;63459;51.456;-0.916;2022-12-29T15:03:43;99804.30;;;23.23;18.62
73862;BME280;63459;51.456;-0.916;2022-12-29T15:06:04;99807.38;;;23.05;18.69
73862;BME280;63459;51.456;-0.916;2022-12-29T15:10:59;99818.96;;;23.08;18.74
73862;BME280;63459;51.456;-0.916;2022-12-29T15:13:18;99814.67;;;23.32;18.76
73862;BME280;63459;51.456;-0.916;2022-12-29T15:15:40;99822.10;;;23.05;18.81
73862;BME280;63459;51.456;-0.916;2022-12-29T15:18:14;99833.08;;;23.26;18.77
73862;BME280;63459;51.456;-0.916;2022-12-29T15:20:31;99828.47;;;22.98;18.83
73862;BME280;63459;51.456;-0.916;2022-12-29T15:25:22;99825.48;;;23.20;18.82
73862;BME280;63459;51.456;-0.916;2022-12-29T15:27:49;99825.32;;;23.24;18.77
73862;BME280;63459;51.456;-0.916;2022-12-29T15:30:13;99825.36;;;23.20;18.80
73862;BME280;63459;51.456;-0.916;2022-12-29T15:32:42;99833.75;;;22.88;18.88
73862;BME280;63459;51.456;-0.916;2022-12-29T15:37:33;99836.67;;;23.00;18.82
73862;BME280;63459;51.456;-0.916;2022-12-29T15:39:55;99851.86;;;23.32;18.89
73862;BME280;63459;51.456;-0.916;2022-12-29T15:42:33;99860.51;;;22.62;18.96
73862;BME280;63459;51.456;-0.916;2022-12-29T15:44:45;99861.87;;;22.77;18.96
73862;BME280;63459;51.456;-0.916;2022-12-29T15:47:14;99864.05;;;22.58;18.96
73862;BME280;63459;51.456;-0.916;2022-12-29T15:52:06;99868.92;;;23.21;18.98
73862;BME280;63459;51.456;-0.916;2022-12-29T15:54:29;99864.73;;;23.00;18.99
73862;BME280;63459;51.456;-0.916;2022-12-29T15:56:51;99870.65;;;23.24;18.98
73862;BME280;63459;51.456;-0.916;2022-12-29T15:59:25;99874.35;;;22.78;18.99
73862;BME280;63459;51.456;-0.916;2022-12-29T16:01:42;99867.95;;;22.98;19.00
73862;BME280;63459;51.456;-0.916;2022-12-29T16:04:08;99879.81;;;22.55;18.90
73862;BME280;63459;51.456;-0.916;2022-12-29T16:06:33;99885.76;;;22.73;18.94
73862;BME280;63459;51.456;-0.916;2022-12-29T16:09:00;99888.08;;;23.20;18.96
73862;BME280;63459;51.456;-0.916;2022-12-29T16:11:25;99894.77;;;23.03;18.84
73862;BME280;63459;51.456;-0.916;2022-12-29T16:13:49;99903.79;;;22.78;18.86
73862;BME280;63459;51.456;-0.916;2022-12-29T16:18:39;99919.65;;;22.32;18.85
73862;BME280;63459;51.456;-0.916;2022-12-29T16:21:15;99922.47;;;22.90;18.87
73862;BME280;63459;51.456;-0.916;2022-12-29T16:23:31;99921.18;;;22.83;18.93
73862;BME280;63459;51.456;-0.916;2022-12-29T16:25:56;99923.25;;;22.77;18.95
73862;BME280;63459;51.456;-0.916;2022-12-29T16:28:23;99928.75;;;22.73;19.05